Time;durP1;ratioP1;P1;durP2;ratioP2;P2;SDS_P1;SDS_P2;PMS_P1;PMS_P2;Temp;Humidity;BMP_temperature;BMP_pressure;BME280_temperature;BME280_humidity;BME280_pressure;Samples;Min_cycle;Max_cycle;Signal;HPM_P1;HPM_P2
2023/05/29 00:00:00;;;;;;;10.07;4.70;;;15.70;1.00;;;;;;4972916;28;20468;-75
2023/05/29 00:02:27;;;;;;;8.80;4.83;;;15.70;1.00;;;;;;4972279;28;20432;-74
2023/05/29 00:04:54;;;;;;;6.20;4.37;;;15.70;1.00;;;;;;4969154;28;20507;-74
2023/05/29 00:07:21;;;;;;;7.50;4.97;;;15.60;1.00;;;;;;4967899;28;20906;-74
2023/05/29 00:09:48;;;;;;;5.90;4.10;;;15.60;1.00;;;;;;4964074;28;20570;-74
2023/05/29 00:12:16;;;;;;;6.80;4.70;;;15.70;1.00;;;;;;4944876;28;21355;-74
2023/05/29 00:14:43;;;;;;;7.70;4.40;;;15.60;1.00;;;;;;4966386;28;20500;-75
2023/05/29 00:17:12;;;;;;;5.53;4.20;;;15.60;1.00;;;;;;4966024;28;20492;-74
2023/05/29 00:19:39;;;;;;;6.97;4.90;;;15.50;1.00;;;;;;4964843;28;20490;-75
2023/05/29 00:22:10;;;;;;;9.17;5.00;;;15.60;1.00;;;;;;4966085;28;20494;-73
2023/05/29 00:24:40;;;;;;;8.33;5.23;;;15.50;1.00;;;;;;4967537;28;20447;-75
2023/05/29 00:27:08;;;;;;;5.20;4.50;;;15.50;1.00;;;;;;4966939;28;20468;-75
2023/05/29 00:29:37;;;;;;;7.03;4.90;;;15.40;1.00;;;;;;4964997;28;20507;-75
2023/05/29 00:32:05;;;;;;;8.40;4.20;;;15.40;1.00;;;;;;4964409;28;20909;-74
2023/05/29 00:34:33;;;;;;;7.87;4.40;;;15.40;1.00;;;;;;4966645;28;20472;-74
2023/05/29 00:37:01;;;;;;;7.00;4.60;;;15.30;1.00;;;;;;4965987;28;21103;-74
2023/05/29 00:39:28;;;;;;;7.50;5.00;;;15.30;1.00;;;;;;4966517;28;20892;-74
2023/05/29 00:41:55;;;;;;;6.00;4.47;;;15.30;1.00;;;;;;4961414;28;21040;-76
2023/05/29 00:44:22;;;;;;;5.50;4.70;;;15.20;1.00;;;;;;4962620;28;20483;-74
2023/05/29 00:46:53;;;;;;;6.93;4.50;;;15.20;1.00;;;;;;4967444;28;20547;-74
2023/05/29 00:49:22;;;;;;;7.97;4.50;;;15.10;1.00;;;;;;4965440;28;20463;-74
2023/05/29 00:51:50;;;;;;;5.40;4.57;;;15.00;1.00;;;;;;4964456;28;21002;-75
2023/05/29 00:54:22;;;;;;;6.97;5.13;;;15.00;1.00;;;;;;4963769;28;20468;-74
2023/05/29 00:56:50;;;;;;;7.47;4.70;;;15.00;1.00;;;;;;4965432;28;21034;-75
2023/05/29 00:59:18;;;;;;;11.03;4.60;;;15.00;1.00;;;;;;4970180;28;20518;-74
2023/05/29 01:04:26;;;;;;;6.20;4.00;;;15.00;1.00;;;;;;4965057;28;20460;-77
2023/05/29 01:06:53;;;;;;;7.27;4.30;;;14.90;1.00;;;;;;4974875;28;20459;-77
2023/05/29 01:09:20;;;;;;;7.80;4.63;;;14.90;1.00;;;;;;4968311;28;20559;-77
2023/05/29 01:12:04;;;;;;;6.67;4.20;;;14.90;1.00;;;;;;4971771;28;20892;-78
2023/05/29 01:14:42;;;;;;;5.20;4.27;;;14.90;1.00;;;;;;4973889;28;20478;-77
2023/05/29 01:17:16;;;;;;;8.80;5.00;;;14.90;1.00;;;;;;4974313;28;20463;-78
2023/05/29 01:20:06;;;;;;;8.43;4.57;;;14.90;1.00;;;;;;4979921;28;20462;-77
2023/05/29 01:22:48;;;;;;;11.60;5.17;;;14.90;1.00;;;;;;4980332;28;20519;-77
2023/05/29 01:25:22;;;;;;;10.83;5.23;;;14.90;1.00;;;;;;4978696;28;20460;-78
2023/05/29 01:27:51;;;;;;;9.93;4.77;;;14.90;1.00;;;;;;4979749;28;20546;-78
2023/05/29 01:30:21;;;;;;;6.63;4.57;;;14.80;1.00;;;;;;4978880;28;20514;-77
2023/05/29 01:32:49;;;;;;;8.93;4.33;;;14.80;1.00;;;;;;4979382;28;20471;-77
2023/05/29 01:35:17;;;;;;;6.27;4.77;;;14.80;1.00;;;;;;4978541;28;20859;-78
2023/05/29 01:37:44;;;;;;;5.97;3.97;;;14.80;1.00;;;;;;4980074;28;20475;-77
2023/05/29 01:40:12;;;;;;;8.00;4.60;;;14.80;1.00;;;;;;4971843;28;20562;-78
2023/05/29 01:42:41;;;;;;;7.70;4.57;;;14.80;1.00;;;;;;4973539;28;20616;-80
2023/05/29 01:45:10;;;;;;;7.73;5.60;;;14.70;1.00;;;;;;4974013;28;20594;-79
2023/05/29 01:47:37;;;;;;;9.67;3.97;;;14.70;1.00;;;;;;4973526;28;20475;-77
2023/05/29 01:50:05;;;;;;;6.83;4.67;;;14.60;1.00;;;;;;4972523;28;20513;-77
2023/05/29 01:52:32;;;;;;;7.60;4.63;;;14.60;1.00;;;;;;4963637;28;20602;-78
2023/05/29 01:54:59;;;;;;;9.33;4.73;;;14.60;1.00;;;;;;4961362;28;20544;-77
2023/05/29 01:57:27;;;;;;;8.30;5.07;;;14.50;1.00;;;;;;4961948;28;20472;-77
2023/05/29 01:59:55;;;;;;;6.70;4.90;;;14.50;1.00;;;;;;4967404;28;20506;-78
2023/05/29 02:02:24;;;;;;;7.87;4.97;;;14.50;1.00;;;;;;4972762;28;21012;-78
2023/05/29 02:04:51;;;;;;;6.50;4.10;;;14.40;1.00;;;;;;4988481;28;20482;-79
2023/05/29 02:07:19;;;;;;;9.30;5.23;;;14.30;1.00;;;;;;4997138;28;20896;-77
2023/05/29 02:09:46;;;;;;;9.67;5.37;;;14.30;1.00;;;;;;4996588;28;20541;-77
2023/05/29 02:12:13;;;;;;;8.47;4.50;;;14.30;1.00;;;;;;5002941;28;20434;-79
2023/05/29 02:14:40;;;;;;;6.07;4.60;;;14.20;1.00;;;;;;5006296;28;20426;-78
2023/05/29 02:17:07;;;;;;;6.67;3.97;;;14.20;1.00;;;;;;5005432;28;20428;-77
2023/05/29 02:19:36;;;;;;;8.13;5.30;;;14.20;1.00;;;;;;5007001;28;20457;-78
2023/05/29 02:22:03;;;;;;;5.10;4.33;;;14.20;1.00;;;;;;5011490;28;20434;-78
2023/05/29 02:24:30;;;;;;;5.83;4.70;;;14.20;1.00;;;;;;5004746;28;20553;-77
2023/05/29 02:26:57;;;;;;;7.27;4.43;;;14.10;1.00;;;;;;4996726;28;20488;-77
2023/05/29 02:29:24;;;;;;;9.63;5.27;;;14.10;1.00;;;;;;4992209;28;20456;-77
2023/05/29 02:31:51;;;;;;;4.13;3.73;;;14.00;1.00;;;;;;4989411;28;20473;-78
2023/05/29 02:34:18;;;;;;;10.83;5.60;;;14.10;1.00;;;;;;4985477;28;20461;-77
2023/05/29 02:36:46;;;;;;;6.87;4.53;;;14.00;1.00;;;;;;4988815;28;20482;-77
2023/05/29 02:39:13;;;;;;;9.70;5.00;;;14.00;1.00;;;;;;4991259;28;20482;-78
2023/05/29 02:41:40;;;;;;;9.80;4.90;;;14.00;1.00;;;;;;4989118;28;20512;-76
2023/05/29 02:44:07;;;;;;;9.07;5.50;;;14.00;1.00;;;;;;4991597;28;20472;-77
2023/05/29 02:46:34;;;;;;;5.30;4.10;;;13.90;1.00;;;;;;4991927;28;21052;-77
2023/05/29 02:49:01;;;;;;;7.17;5.30;;;13.90;1.00;;;;;;4992129;28;20485;-78
2023/05/29 02:51:28;;;;;;;6.77;5.00;;;13.80;1.00;;;;;;4992694;28;20469;-78
2023/05/29 02:53:56;;;;;;;8.77;4.43;;;13.80;1.00;;;;;;4990508;28;20461;-78
2023/05/29 02:56:24;;;;;;;6.23;4.70;;;13.80;1.00;;;;;;4987792;28;20463;-78
2023/05/29 02:58:51;;;;;;;6.00;4.87;;;13.80;1.00;;;;;;4994126;28;20529;-77
2023/05/29 03:01:18;;;;;;;8.23;5.47;;;13.80;1.00;;;;;;4988103;28;20468;-78
2023/05/29 03:03:45;;;;;;;7.07;5.00;;;13.70;1.00;;;;;;4991538;28;20542;-77
2023/05/29 03:06:12;;;;;;;7.37;4.63;;;13.70;1.00;;;;;;4987336;28;20495;-77
2023/05/29 03:08:40;;;;;;;7.37;5.03;;;13.70;1.00;;;;;;4992945;28;20466;-77
2023/05/29 03:11:10;;;;;;;5.87;4.90;;;13.80;1.00;;;;;;4989358;28;20458;-77
2023/05/29 03:13:37;;;;;;;6.83;5.30;;;13.70;1.00;;;;;;4989610;28;20489;-77
2023/05/29 03:16:04;;;;;;;5.70;4.57;;;13.70;1.00;;;;;;4988467;28;20470;-77
2023/05/29 03:18:31;;;;;;;8.10;4.97;;;13.70;1.00;;;;;;4996010;28;20907;-77
2023/05/29 03:20:58;;;;;;;7.97;5.33;;;13.70;1.00;;;;;;4990881;28;20985;-77
2023/05/29 03:23:25;;;;;;;7.50;4.30;;;13.70;1.00;;;;;;4990016;28;20468;-77
2023/05/29 03:25:52;;;;;;;8.67;5.30;;;13.80;1.00;;;;;;4988334;28;21053;-77
2023/05/29 03:28:20;;;;;;;9.03;5.67;;;13.80;1.00;;;;;;4985438;28;20820;-76
2023/05/29 03:30:48;;;;;;;6.63;4.10;;;13.70;1.00;;;;;;4973819;28;20969;-77
2023/05/29 03:33:14;;;;;;;7.30;4.87;;;13.70;1.00;;;;;;4989643;28;20473;-76
2023/05/29 03:35:41;;;;;;;7.67;5.50;;;13.80;1.00;;;;;;4989061;28;20946;-77
2023/05/29 03:38:08;;;;;;;7.73;4.90;;;13.80;1.00;;;;;;4989003;28;21294;-79
2023/05/29 03:40:35;;;;;;;8.10;5.70;;;13.80;1.00;;;;;;4987970;28;20917;-77
2023/05/29 03:43:02;;;;;;;6.10;4.47;;;13.80;1.00;;;;;;4989052;28;20554;-77
2023/05/29 03:45:30;;;;;;;7.67;4.83;;;13.80;1.00;;;;;;4986850;28;20961;-77
2023/05/29 03:47:57;;;;;;;6.03;4.73;;;13.90;1.00;;;;;;4990198;28;20552;-77
2023/05/29 03:50:24;;;;;;;7.37;5.07;;;13.90;1.00;;;;;;4990296;28;20490;-77
2023/05/29 03:52:51;;;;;;;5.87;4.97;;;13.80;1.00;;;;;;4986267;28;20608;-79
2023/05/29 03:55:18;;;;;;;6.40;4.67;;;13.90;1.00;;;;;;4981241;28;20472;-78
2023/05/29 03:57:45;;;;;;;10.03;5.53;;;13.90;1.00;;;;;;4983022;28;20536;-78
2023/05/29 04:08:02;;;;;;;11.03;5.50;;;13.90;1.00;;;;;;4934414;28;20481;-78
2023/05/29 04:17:22;;;;;;;5.60;5.00;;;14.00;1.00;;;;;;4969249;28;20922;-78
2023/05/29 04:52:46;;;;;;;6.53;4.53;;;15.20;1.00;;;;;;4823504;29;20485;-79
2023/05/29 05:05:40;;;;;;;5.80;4.20;;;15.80;1.00;;;;;;4837781;29;21387;-79
2023/05/29 05:08:54;;;;;;;;;;;;;;;;;;;;;
2023/05/29 05:11:56;;;;;;;4.20;3.73;;;16.20;1.00;;;;;;4851420;29;37910;-78
2023/05/29 05:14:55;;;;;;;6.00;3.87;;;16.40;1.00;;;;;;4874577;29;20462;-78
2023/05/29 05:24:59;;;;;;;;;;;;;;;;;;;;;
2023/05/29 05:28:08;;;;;;;;;;;;;;;;;;;;;
2023/05/29 05:37:22;;;;;;;;;;;;;;;;;;;;;
2023/05/29 06:12:44;;;;;;;;;;;;;;;;;;;;;
2023/05/29 06:33:58;;;;;;;2.90;2.57;;;18.40;1.00;;;;;;4910329;28;21965;-77
2023/05/29 06:36:59;;;;;;;3.67;3.10;;;18.60;1.00;;;;;;4905301;28;20488;-78
2023/05/29 06:39:35;;;;;;;4.40;3.17;;;18.90;1.00;;;;;;4904378;28;20475;-78
2023/05/29 06:42:40;;;;;;;3.60;2.73;;;19.00;1.00;;;;;;4949220;28;20466;-80
2023/05/29 06:45:18;;;;;;;3.10;2.80;;;19.00;1.00;;;;;;4959511;28;21896;-79
2023/05/29 06:50:51;;;;;;;3.00;2.43;;;19.20;1.00;;;;;;4981874;28;20561;-78
2023/05/29 06:56:32;;;;;;;;;;;;;;;;;;;;;
2023/05/29 06:59:14;;;;;;;3.40;2.77;;;19.00;1.00;;;;;;4960313;28;40987;-76
2023/05/29 07:01:59;;;;;;;3.30;2.50;;;19.20;1.00;;;;;;4965155;28;21019;-79
2023/05/29 07:05:10;;;;;;;;;;;;;;;;;;;;;
2023/05/29 07:10:57;;;;;;;3.57;2.70;;;19.80;1.00;;;;;;4955817;28;20476;-79
2023/05/29 07:13:38;;;;;;;3.70;3.00;;;19.90;1.00;;;;;;4922713;28;20542;-78
2023/05/29 07:16:31;;;;;;;3.20;2.80;;;20.00;1.00;;;;;;4936476;28;20566;-78
2023/05/29 07:22:40;;;;;;;;;;;;;;;;;;;;;
2023/05/29 07:25:29;;;;;;;3.60;2.73;;;20.20;1.00;;;;;;4936120;28;49452;-79
2023/05/29 07:28:00;;;;;;;2.80;2.43;;;20.10;1.00;;;;;;4969586;28;21862;-78
2023/05/29 07:30:43;;;;;;;3.87;3.30;;;20.10;1.00;;;;;;4968207;28;20481;-76
2023/05/29 07:39:50;;;;;;;4.83;3.10;;;20.50;1.00;;;;;;4919030;28;20469;-78
2023/05/29 07:42:50;;;;;;;;;;;;;;;;;;;;;
2023/05/29 07:49:26;;;;;;;;;;;;;;;;;;;;;
2023/05/29 07:52:46;;;;;;;3.70;2.53;;;21.00;1.00;;;;;;4910336;28;50717;-79
2023/05/29 07:55:22;;;;;;;3.77;2.90;;;21.10;1.00;;;;;;4947271;28;20489;-80
2023/05/29 07:58:42;;;;;;;2.43;1.90;;;21.20;1.00;;;;;;4937760;28;20434;-79
2023/05/29 08:01:13;;;;;;;3.93;2.83;;;21.10;1.00;;;;;;4951217;28;21232;-79
2023/05/29 08:03:43;;;;;;;3.23;2.73;;;21.20;1.00;;;;;;4980095;28;20468;-78
2023/05/29 08:06:11;;;;;;;3.73;3.07;;;21.60;1.00;;;;;;4977650;28;20839;-79
2023/05/29 08:08:44;;;;;;;4.30;2.43;;;21.90;1.00;;;;;;4990092;28;20458;-77
2023/05/29 08:11:12;;;;;;;3.80;3.03;;;22.30;1.00;;;;;;4976612;28;20906;-78
2023/05/29 08:13:42;;;;;;;3.43;2.40;;;22.70;1.00;;;;;;4982215;28;20481;-78
2023/05/29 08:16:10;;;;;;;3.23;2.80;;;22.90;1.00;;;;;;4986166;28;20938;-79
2023/05/29 08:18:58;;;;;;;2.70;2.50;;;22.90;1.00;;;;;;4978086;28;20962;-77
2023/05/29 08:21:43;;;;;;;3.50;3.20;;;23.00;1.00;;;;;;4972207;28;20500;-77
2023/05/29 08:24:11;;;;;;;4.43;2.73;;;23.30;1.00;;;;;;4964536;28;20476;-77
2023/05/29 08:26:39;;;;;;;3.60;2.93;;;22.90;1.00;;;;;;4982090;28;21780;-77
2023/05/29 08:29:12;;;;;;;3.90;2.57;;;22.80;1.00;;;;;;4990927;28;20457;-78
2023/05/29 08:31:39;;;;;;;3.50;3.20;;;22.90;1.00;;;;;;4979669;28;20567;-77
2023/05/29 08:34:19;;;;;;;;;;;;;;;;;;;;;
2023/05/29 08:36:48;;;;;;;2.93;2.67;;;22.70;1.00;;;;;;4985849;28;41591;-76
2023/05/29 08:39:18;;;;;;;5.23;4.40;;;22.60;1.00;;;;;;4991032;28;20468;-80
2023/05/29 08:41:53;;;;;;;8.37;3.67;;;22.60;1.00;;;;;;4974940;28;20454;-75
2023/05/29 08:44:28;;;;;;;5.00;4.60;;;22.60;1.00;;;;;;4991473;28;20505;-76
2023/05/29 08:46:58;;;;;;;3.30;2.90;;;22.80;1.00;;;;;;4990384;28;20480;-77
2023/05/29 08:49:35;;;;;;;3.77;3.00;;;22.90;1.00;;;;;;4967926;28;20593;-77
2023/05/29 08:52:18;;;;;;;4.10;3.70;;;22.90;1.00;;;;;;4969808;28;20468;-77
2023/05/29 08:54:46;;;;;;;3.20;2.90;;;22.60;1.00;;;;;;4981894;28;20895;-76
2023/05/29 08:57:18;;;;;;;4.23;3.20;;;22.60;1.00;;;;;;4978278;28;20503;-77
2023/05/29 08:59:53;;;;;;;5.80;3.10;;;22.60;1.00;;;;;;4987280;28;20446;-77
2023/05/29 09:02:20;;;;;;;3.63;3.03;;;22.70;1.00;;;;;;4990492;28;20467;-78
2023/05/29 09:04:58;;;;;;;;;;;;;;;;;;;;;
2023/05/29 09:07:39;;;;;;;3.10;2.90;;;22.80;1.00;;;;;;4987788;28;50776;-78
2023/05/29 09:10:28;;;;;;;3.97;2.90;;;22.90;1.00;;;;;;4980183;28;20453;-78
2023/05/29 09:12:56;;;;;;;2.93;2.67;;;23.00;1.00;;;;;;4980394;28;20459;-75
2023/05/29 09:15:33;;;;;;;8.37;3.80;;;23.10;1.00;;;;;;4986073;28;20435;-78
2023/05/29 09:18:08;;;;;;;3.07;2.77;;;23.30;1.00;;;;;;4974356;28;20481;-77
2023/05/29 09:21:13;;;;;;;3.23;2.87;;;23.30;1.00;;;;;;4997080;28;20445;-78
2023/05/29 09:24:14;;;;;;;3.13;2.60;;;23.40;1.00;;;;;;4959427;28;20975;-78
2023/05/29 09:27:02;;;;;;;3.50;3.03;;;23.70;1.00;;;;;;4923250;28;20620;-79
2023/05/29 09:29:40;;;;;;;3.53;3.23;;;23.90;1.00;;;;;;4986342;28;20475;-80
2023/05/29 09:32:13;;;;;;;3.60;3.30;;;24.10;1.00;;;;;;4970183;28;20445;-80
2023/05/29 09:38:41;;;;;;;3.97;3.27;;;26.10;1.00;;;;;;4977518;28;20487;-79
2023/05/29 09:41:10;;;;;;;3.90;3.43;;;28.10;1.00;;;;;;4965506;28;20496;-78
2023/05/29 09:43:41;;;;;;;3.27;3.00;;;28.70;1.00;;;;;;4968324;28;20621;-78
2023/05/29 09:46:08;;;;;;;3.27;2.57;;;28.20;1.00;;;;;;4987917;28;20551;-78
2023/05/29 09:48:36;;;;;;;4.90;3.53;;;27.80;1.00;;;;;;4989636;28;20464;-78
2023/05/29 09:51:06;;;;;;;4.30;3.93;;;28.10;1.00;;;;;;4989438;28;20477;-78
2023/05/29 09:53:43;;;;;;;4.00;3.60;;;29.10;1.00;;;;;;4987762;28;20989;-78
2023/05/29 09:56:15;;;;;;;5.30;3.50;;;29.80;1.00;;;;;;4989181;28;20473;-78
2023/05/29 09:58:47;;;;;;;4.67;3.73;;;30.00;1.00;;;;;;4989688;28;20463;-80
2023/05/29 10:01:17;;;;;;;3.93;3.63;;;30.10;1.00;;;;;;4969330;28;20570;-79
2023/05/29 10:03:45;;;;;;;3.97;3.63;;;31.00;1.00;;;;;;4987187;28;20459;-78
2023/05/29 10:06:20;;;;;;;4.50;3.60;;;30.50;1.00;;;;;;4971227;28;20474;-78
2023/05/29 10:08:55;;;;;;;3.03;2.73;;;29.40;1.00;;;;;;4970522;28;20524;-80
2023/05/29 10:11:32;;;;;;;3.37;3.07;;;29.10;1.00;;;;;;4963375;28;20858;-79
2023/05/29 10:14:12;;;;;;;6.20;3.67;;;29.40;1.00;;;;;;4990952;28;20520;-80
2023/05/29 10:19:49;;;;;;;3.33;2.83;;;30.40;1.00;;;;;;4978680;28;21274;-78
2023/05/29 10:22:20;;;;;;;3.30;3.00;;;29.40;1.00;;;;;;4968891;28;20482;-79
2023/05/29 10:24:51;;;;;;;5.10;3.93;;;28.20;1.00;;;;;;4958602;28;21008;-78
2023/05/29 10:27:22;;;;;;;5.23;3.30;;;28.10;1.00;;;;;;4983375;28;20532;-78
2023/05/29 10:29:57;;;;;;;4.13;3.40;;;27.50;1.00;;;;;;4982308;28;20472;-78
2023/05/29 10:32:33;;;;;;;7.90;5.10;;;27.10;1.00;;;;;;4979858;28;20538;-79
2023/05/29 10:35:09;;;;;;;3.40;3.10;;;26.60;1.00;;;;;;4974128;28;21198;-77
2023/05/29 10:37:41;;;;;;;4.03;3.20;;;26.40;1.00;;;;;;4986244;28;20850;-78
2023/05/29 10:40:14;;;;;;;3.40;3.10;;;26.30;1.00;;;;;;4989878;28;20455;-78
2023/05/29 10:42:58;;;;;;;4.23;3.20;;;26.20;1.00;;;;;;4992413;28;20467;-79
2023/05/29 10:45:52;;;;;;;4.00;3.60;;;27.30;1.00;;;;;;4949537;28;20531;-79
2023/05/29 10:48:44;;;;;;;3.50;3.20;;;29.40;1.00;;;;;;4978982;28;20497;-79
2023/05/29 10:51:31;;;;;;;4.87;3.60;;;30.30;1.00;;;;;;4989967;28;20477;-80
2023/05/29 10:54:16;;;;;;;3.30;3.00;;;29.50;1.00;;;;;;4986366;28;20462;-79
2023/05/29 10:57:02;;;;;;;3.93;3.50;;;29.90;1.00;;;;;;4990704;28;20451;-79
2023/05/29 11:00:13;;;;;;;3.83;3.30;;;31.10;1.00;;;;;;4972864;28;20498;-80
2023/05/29 11:02:49;;;;;;;4.10;3.00;;;30.70;1.00;;;;;;4979049;28;20548;-78
2023/05/29 11:11:31;;;;;;;5.30;3.83;;;33.20;1.00;;;;;;5012309;28;20475;-80
2023/05/29 11:14:06;;;;;;;6.17;4.20;;;32.70;1.00;;;;;;4968817;28;20421;-79
2023/05/29 11:17:11;;;;;;;3.33;3.03;;;32.70;1.00;;;;;;4992532;28;20515;-78
2023/05/29 11:19:51;;;;;;;5.57;3.40;;;33.50;1.00;;;;;;4997947;28;20457;-79
2023/05/29 11:25:15;;;;;;;5.00;4.50;;;33.00;1.00;;;;;;4973550;28;21204;-78
2023/05/29 11:27:52;;;;;;;4.10;3.30;;;32.90;1.00;;;;;;4970870;28;20499;-79
2023/05/29 11:30:23;;;;;;;3.70;3.10;;;33.30;1.00;;;;;;4974274;28;20446;-79
2023/05/29 11:33:11;;;;;;;2.70;2.50;;;32.90;1.00;;;;;;4967511;28;20463;-79
2023/05/29 11:36:08;;;;;;;3.57;3.10;;;33.70;1.00;;;;;;4976970;28;20467;-79
2023/05/29 11:38:59;;;;;;;3.23;2.90;;;34.90;1.00;;;;;;4959185;28;20944;-80
2023/05/29 11:41:45;;;;;;;3.40;3.10;;;36.00;1.00;;;;;;4964728;28;20458;-79
2023/05/29 11:44:28;;;;;;;3.40;3.10;;;36.70;1.00;;;;;;4978062;28;20475;-78
2023/05/29 11:47:12;;;;;;;3.20;2.90;;;37.60;1.00;;;;;;4968951;28;20457;-80
2023/05/29 11:50:06;;;;;;;3.97;3.07;;;38.40;1.00;;;;;;4979631;28;20462;-79
2023/05/29 11:52:56;;;;;;;3.40;2.97;;;38.80;1.00;;;;;;4943632;28;20463;-78
2023/05/29 11:55:26;;;;;;;3.67;3.37;;;37.70;1.00;;;;;;4966921;28;21050;-78
2023/05/29 11:58:00;;;;;;;4.10;2.80;;;35.70;1.00;;;;;;4986535;28;20478;-78
2023/05/29 12:00:33;;;;;;;2.80;2.60;;;34.90;1.00;;;;;;4985851;28;20827;-79
2023/05/29 12:03:18;;;;;;;3.40;2.73;;;35.90;1.00;;;;;;4984732;28;20508;-79
2023/05/29 12:06:08;;;;;;;;;;;;;;;;;;;;;
2023/05/29 12:08:56;;;;;;;3.17;2.87;;;37.20;1.00;;;;;;4935091;28;48728;-79
2023/05/29 12:12:04;;;;;;;3.90;3.40;;;37.20;1.00;;;;;;4946390;28;20526;-79
2023/05/29 12:14:55;;;;;;;3.33;3.03;;;37.60;1.00;;;;;;4946811;28;20948;-80
2023/05/29 12:17:35;;;;;;;2.63;2.43;;;37.50;1.00;;;;;;4976584;28;20466;-79
2023/05/29 12:20:06;;;;;;;4.87;3.50;;;36.90;1.00;;;;;;4972106;28;20484;-78
2023/05/29 12:22:38;;;;;;;3.60;3.20;;;35.80;1.00;;;;;;4980576;28;20977;-79
2023/05/29 12:25:07;;;;;;;3.10;2.77;;;33.90;1.00;;;;;;4981325;28;20457;-78
2023/05/29 12:27:46;;;;;;;3.40;3.03;;;33.30;1.00;;;;;;4979196;28;20474;-80
2023/05/29 12:30:30;;;;;;;3.20;2.90;;;33.60;1.00;;;;;;4990170;28;20451;-80
2023/05/29 12:32:59;;;;;;;3.80;3.50;;;33.80;1.00;;;;;;4975752;28;20463;-78
2023/05/29 12:35:31;;;;;;;4.40;3.23;;;32.70;1.00;;;;;;4966796;28;20619;-79
2023/05/29 12:38:00;;;;;;;4.57;3.37;;;31.60;1.00;;;;;;4985482;28;20553;-79
2023/05/29 12:40:39;;;;;;;5.20;4.30;;;30.90;1.00;;;;;;4977908;28;21574;-79
2023/05/29 12:43:13;;;;;;;6.40;3.10;;;31.40;1.00;;;;;;4977758;28;20514;-78
2023/05/29 12:45:45;;;;;;;4.37;3.00;;;31.50;1.00;;;;;;4985071;28;23115;-78
2023/05/29 12:48:14;;;;;;;4.20;3.80;;;31.00;1.00;;;;;;4984142;28;20553;-79
2023/05/29 12:50:44;;;;;;;4.83;3.80;;;31.00;1.00;;;;;;4988536;28;21326;-79
2023/05/29 12:53:21;;;;;;;3.97;3.47;;;32.10;1.00;;;;;;4979234;28;20483;-81
2023/05/29 12:56:17;;;;;;;4.03;3.07;;;33.60;1.00;;;;;;4962953;28;20455;-79
2023/05/29 12:59:08;;;;;;;6.53;4.10;;;34.50;1.00;;;;;;4988803;28;20459;-79
2023/05/29 13:01:43;;;;;;;7.23;3.87;;;35.10;1.00;;;;;;4966722;28;20468;-79
2023/05/29 13:04:24;;;;;;;3.23;2.93;;;35.70;1.00;;;;;;4973532;28;20473;-78
2023/05/29 13:07:18;;;;;;;5.70;4.30;;;36.10;1.00;;;;;;4969831;28;20469;-78
2023/05/29 13:10:16;;;;;;;5.20;3.60;;;36.50;1.00;;;;;;4964408;28;20665;-79
2023/05/29 13:12:46;;;;;;;5.40;3.07;;;35.00;1.00;;;;;;4979774;28;20517;-79
2023/05/29 13:15:15;;;;;;;3.70;3.37;;;33.60;1.00;;;;;;4970583;28;20468;-78
2023/05/29 13:17:43;;;;;;;10.73;5.67;;;32.10;1.00;;;;;;4996464;28;20899;-78
2023/05/29 13:20:12;;;;;;;3.50;2.70;;;30.70;1.00;;;;;;4972774;28;20490;-78
2023/05/29 13:22:39;;;;;;;5.23;3.73;;;29.80;1.00;;;;;;4989958;28;20530;-79
2023/05/29 13:25:10;;;;;;;4.90;3.73;;;30.40;1.00;;;;;;4990899;28;20482;-80
2023/05/29 13:27:43;;;;;;;4.40;3.10;;;32.00;1.00;;;;;;4994593;28;20455;-79
2023/05/29 13:30:34;;;;;;;3.73;3.43;;;33.60;1.00;;;;;;4980538;28;20960;-78
2023/05/29 13:33:23;;;;;;;4.10;3.40;;;34.80;1.00;;;;;;4960065;28;20462;-79
2023/05/29 13:35:59;;;;;;;5.13;3.07;;;35.30;1.00;;;;;;4986288;28;20600;-79
2023/05/29 13:38:53;;;;;;;3.27;2.83;;;35.80;1.00;;;;;;4979516;28;20455;-81
2023/05/29 13:41:31;;;;;;;3.90;3.53;;;36.10;1.00;;;;;;4966947;28;20490;-78
2023/05/29 13:44:13;;;;;;;4.90;3.17;;;35.90;1.00;;;;;;4956635;28;21804;-80
2023/05/29 13:50:27;;;;;;;;;;;;;;;;;;;;;
2023/05/29 13:55:57;;;;;;;4.83;3.43;;;36.90;1.00;;;;;;4912867;28;20475;-79
2023/05/29 13:58:30;;;;;;;8.97;3.63;;;36.80;1.00;;;;;;4965046;28;20943;-80
2023/05/29 14:01:07;;;;;;;3.70;3.20;;;36.70;1.00;;;;;;4962083;28;21325;-79
2023/05/29 14:04:03;;;;;;;4.73;3.20;;;36.40;1.00;;;;;;4944623;28;20454;-80
2023/05/29 14:06:45;;;;;;;3.33;3.00;;;36.70;1.00;;;;;;4949593;28;21306;-79
2023/05/29 14:09:22;;;;;;;3.73;3.30;;;36.40;1.00;;;;;;4967271;28;20464;-80
2023/05/29 14:11:55;;;;;;;3.60;3.30;;;35.40;1.00;;;;;;4967074;28;20985;-78
2023/05/29 14:14:27;;;;;;;3.73;3.10;;;35.20;1.00;;;;;;4959816;28;20461;-78
2023/05/29 14:17:08;;;;;;;4.53;3.50;;;34.50;1.00;;;;;;4956962;28;20496;-79
2023/05/29 14:35:52;;;;;;;4.67;2.97;;;32.10;1.00;;;;;;4704116;29;20259;-80
2023/05/29 14:38:28;;;;;;;4.37;3.00;;;30.90;1.00;;;;;;4842599;29;20515;-80
2023/05/29 14:41:07;;;;;;;4.03;3.03;;;29.80;1.00;;;;;;4896308;28;20472;-79
2023/05/29 14:43:39;;;;;;;3.50;3.20;;;29.20;1.00;;;;;;4936031;28;20450;-79
2023/05/29 14:46:06;;;;;;;3.70;2.90;;;28.90;1.00;;;;;;4978244;28;20470;-81
2023/05/29 14:48:48;;;;;;;;;;;;;;;;;;;;;
2023/05/29 14:51:36;;;;;;;3.90;3.27;;;29.00;1.00;;;;;;4999521;28;39624;-81
2023/05/29 14:54:29;;;;;;;3.63;2.90;;;29.80;1.00;;;;;;4975939;28;20440;-79
2023/05/29 15:03:44;;;;;;;5.27;2.73;;;33.70;1.00;;;;;;4957239;28;20447;-81
2023/05/29 15:10:25;;;;;;;;;;;;;;;;;;;;;
2023/05/29 15:19:25;;;;;;;;;;;;;;;;;;;;;
2023/05/29 15:22:36;;;;;;;;;;;;;;;;;;;;;
2023/05/29 15:25:44;;;;;;;5.53;3.27;;;33.70;1.00;;;;;;4959140;28;50714;-81
2023/05/29 15:31:30;;;;;;;6.83;3.37;;;35.00;1.00;;;;;;4974177;28;20451;-79
2023/05/29 15:34:24;;;;;;;5.17;3.00;;;35.30;1.00;;;;;;4987720;28;20500;-80
2023/05/29 15:41:09;;;;;;;4.00;2.90;;;35.20;1.00;;;;;;4949037;28;20451;-77
2023/05/29 15:44:13;;;;;;;5.27;3.00;;;35.40;1.00;;;;;;4832862;29;20475;-79
2023/05/29 15:50:48;;;;;;;4.47;3.63;;;35.80;1.00;;;;;;4922900;28;20477;-78
2023/05/29 15:54:07;;;;;;;3.13;2.13;;;35.60;1.00;;;;;;4908381;28;20453;-79
2023/05/29 15:57:07;;;;;;;2.10;1.90;;;35.00;1.00;;;;;;4856816;29;20490;-80
2023/05/29 16:28:20;;;;;;;8.60;4.70;;;31.00;1.00;;;;;;4833495;28;20483;-80
2023/05/29 16:31:18;;;;;;;;;;;;;;;;;;;;;
2023/05/29 16:33:53;;;;;;;4.40;3.20;;;30.10;1.00;;;;;;4984510;28;20561;-79
2023/05/29 16:36:35;;;;;;;6.83;3.20;;;29.30;1.00;;;;;;4982166;28;20462;-80
2023/05/29 16:39:30;;;;;;;7.33;5.03;;;28.80;1.00;;;;;;4969067;28;20462;-79
2023/05/29 16:42:20;;;;;;;5.37;2.83;;;29.20;1.00;;;;;;4938252;28;20944;-81
2023/05/29 16:44:51;;;;;;;6.17;2.83;;;29.70;1.00;;;;;;4973955;28;20527;-79
2023/05/29 16:48:04;;;;;;;5.57;3.60;;;29.80;1.00;;;;;;4965112;28;20446;-82
2023/05/29 16:50:56;;;;;;;3.87;2.90;;;30.00;1.00;;;;;;4905212;28;20659;-78
2023/05/29 16:54:01;;;;;;;3.50;2.80;;;30.10;1.00;;;;;;4953588;28;20472;-81
2023/05/29 17:00:08;;;;;;;3.40;2.87;;;29.80;1.00;;;;;;4978199;28;20462;-80
2023/05/29 17:03:03;;;;;;;4.87;3.00;;;28.80;1.00;;;;;;4931624;28;23379;-79
2023/05/29 17:05:45;;;;;;;;;;;;;;;;;;;;;
2023/05/29 17:08:22;;;;;;;4.73;2.70;;;28.00;1.00;;;;;;4948118;28;38812;-79
2023/05/29 17:10:50;;;;;;;6.10;3.03;;;27.20;1.00;;;;;;4988145;28;20477;-79
2023/05/29 17:13:18;;;;;;;3.63;2.70;;;26.70;1.00;;;;;;4985587;28;20985;-79
2023/05/29 17:16:21;;;;;;;8.27;3.40;;;26.40;1.00;;;;;;4973043;28;21296;-79
2023/05/29 17:18:53;;;;;;;8.03;5.10;;;26.00;1.00;;;;;;4970328;28;20484;-79
2023/05/29 17:21:33;;;;;;;5.53;2.83;;;25.60;1.00;;;;;;4968354;28;20988;-78
2023/05/29 17:29:50;;;;;;;5.40;3.00;;;24.90;1.00;;;;;;4961847;28;20479;-82
2023/05/29 17:41:42;;;;;;;6.23;3.40;;;24.50;1.00;;;;;;4832524;29;20439;-79
2023/05/29 17:45:15;;;;;;;4.20;2.70;;;24.30;1.00;;;;;;4917120;28;20408;-79
2023/05/29 18:00:32;;;;;;;7.83;3.73;;;23.00;1.00;;;;;;4976449;23;20614;-79
2023/05/29 18:03:02;;;;;;;3.93;3.43;;;22.90;1.00;;;;;;4963981;28;20478;-78
2023/05/29 18:05:29;;;;;;;5.20;3.20;;;22.80;1.00;;;;;;4958429;28;20457;-78
2023/05/29 18:07:56;;;;;;;11.97;4.10;;;22.70;1.00;;;;;;4965027;28;20488;-78
2023/05/29 18:10:24;;;;;;;5.40;2.90;;;22.70;1.00;;;;;;4968660;28;20435;-78
2023/05/29 18:12:52;;;;;;;4.00;2.80;;;22.60;1.00;;;;;;4964018;28;20432;-77
2023/05/29 18:15:23;;;;;;;5.03;2.80;;;22.50;1.00;;;;;;4960911;28;20571;-76
2023/05/29 18:17:51;;;;;;;4.20;2.47;;;22.50;1.00;;;;;;4964448;28;20478;-78
2023/05/29 18:20:18;;;;;;;8.87;3.40;;;22.40;1.00;;;;;;4960909;28;20993;-78
2023/05/29 18:22:55;;;;;;;4.27;3.27;;;22.40;1.00;;;;;;4966155;28;20530;-78
2023/05/29 18:25:29;;;;;;;4.40;2.97;;;22.20;1.00;;;;;;4961887;28;20491;-78
2023/05/29 18:27:58;;;;;;;4.60;3.30;;;22.10;1.00;;;;;;4965662;28;20459;-78
2023/05/29 18:30:26;;;;;;;7.70;3.80;;;22.00;1.00;;;;;;4965004;28;20866;-78
2023/05/29 18:32:57;;;;;;;10.40;4.37;;;21.90;1.00;;;;;;4961430;28;20904;-77
2023/05/29 18:35:24;;;;;;;6.20;2.67;;;21.80;1.00;;;;;;4960074;28;20912;-78
2023/05/29 18:38:01;;;;;;;3.90;2.67;;;21.70;1.00;;;;;;4965542;28;20496;-78
2023/05/29 18:40:30;;;;;;;4.87;2.83;;;21.50;1.00;;;;;;4963504;28;20691;-78
2023/05/29 18:43:01;;;;;;;5.40;2.57;;;21.40;1.00;;;;;;4962877;28;20544;-77
2023/05/29 18:45:30;;;;;;;4.40;2.93;;;21.40;1.00;;;;;;4940011;28;20476;-77